createdAt,value
2022-12-25T00:02:30.006Z,65.35
2022-12-25T00:05:27.492Z,63.43
2022-12-25T00:08:25.250Z,62.42
2022-12-25T00:11:22.681Z,58.45
2022-12-25T00:14:20.403Z,56.17
2022-12-25T00:17:18.151Z,56.48
2022-12-25T00:20:15.584Z,57.67
2022-12-25T00:23:13.292Z,58.89
2022-12-25T00:26:10.722Z,59.84
2022-12-25T00:29:08.359Z,64.56
2022-12-25T00:32:05.793Z,67.67
2022-12-25T00:35:03.566Z,66.34
2022-12-25T00:38:01.024Z,65.85
2022-12-25T00:40:58.756Z,62.78
2022-12-25T00:43:56.778Z,62.23
2022-12-25T00:46:54.335Z,58.48
2022-12-25T00:49:52.174Z,55.99
2022-12-25T00:52:49.607Z,56.24
2022-12-25T00:55:47.296Z,57.41
2022-12-25T00:58:44.730Z,58.74
2022-12-25T01:01:42.573Z,59.76
2022-12-25T01:04:40.443Z,64.01
2022-12-25T01:07:37.897Z,67.95
2022-12-25T01:10:35.591Z,67.74
2022-12-25T01:13:34.713Z,64.78
2022-12-25T01:16:32.454Z,63.45
2022-12-25T01:19:29.937Z,61.82
2022-12-25T01:22:27.701Z,60.80
2022-12-25T01:25:25.147Z,60.44
2022-12-25T01:28:22.761Z,60.86
2022-12-25T01:31:20.424Z,60.35
2022-12-25T01:34:17.874Z,61.69
2022-12-25T01:37:15.618Z,61.18
2022-12-25T01:40:13.062Z,57.87
2022-12-25T01:43:17.054Z,55.41
2022-12-25T01:46:16.516Z,55.87
2022-12-25T01:49:14.148Z,57.19
2022-12-25T01:52:11.791Z,58.31
2022-12-25T01:55:12.261Z,59.56
2022-12-25T01:58:10.025Z,60.54
2022-12-25T02:01:07.561Z,64.99
2022-12-25T02:04:05.282Z,67.72
2022-12-25T02:07:02.720Z,66.62
2022-12-25T02:10:00.460Z,64.83
2022-12-25T02:12:57.933Z,63.29
2022-12-25T02:15:55.618Z,62.92
2022-12-25T02:18:53.077Z,63.20
2022-12-25T02:21:50.715Z,62.07
2022-12-25T02:24:48.366Z,61.16
2022-12-25T02:27:45.828Z,57.83
2022-12-25T02:30:43.524Z,55.52
2022-12-25T02:33:59.012Z,56.10
2022-12-25T02:36:56.747Z,56.95
2022-12-25T02:40:00.451Z,58.48
2022-12-25T02:43:16.023Z,59.32
2022-12-25T02:46:31.408Z,60.04
2022-12-25T02:49:46.736Z,65.03
2022-12-25T02:53:02.171Z,65.97
2022-12-25T02:56:17.189Z,64.39
2022-12-25T02:59:32.498Z,63.71
2022-12-25T03:02:47.714Z,64.55
2022-12-25T03:06:03.153Z,64.87
2022-12-25T03:09:20.930Z,64.18
2022-12-25T03:12:18.374Z,63.56
2022-12-25T03:15:36.113Z,63.64
2022-12-25T03:18:33.895Z,64.77
2022-12-25T03:21:49.161Z,63.96
2022-12-25T03:25:04.578Z,61.93
2022-12-25T03:28:02.018Z,60.58
2022-12-25T03:31:15.124Z,60.60
2022-12-25T03:34:30.665Z,60.73
2022-12-25T03:37:45.084Z,64.80
2022-12-25T03:41:00.447Z,62.82
2022-12-25T03:44:30.502Z,60.71
2022-12-25T03:47:45.805Z,60.70
2022-12-25T03:51:01.164Z,60.26
2022-12-25T03:54:16.538Z,57.52
2022-12-25T03:57:31.792Z,56.10
2022-12-25T04:00:47.441Z,57.09
2022-12-25T04:04:02.372Z,58.45
2022-12-25T04:07:22.788Z,59.78
2022-12-25T04:10:37.988Z,64.58
2022-12-25T04:13:53.525Z,65.43
2022-12-25T04:17:08.887Z,64.72
2022-12-25T04:20:24.265Z,64.16
2022-12-25T04:23:39.597Z,67.04
2022-12-25T04:26:54.610Z,67.19
2022-12-25T04:30:10.325Z,65.88
2022-12-25T04:33:37.354Z,64.60
2022-12-25T04:36:34.790Z,63.41
2022-12-25T04:39:32.521Z,62.92
2022-12-25T04:42:29.954Z,64.24
2022-12-25T04:45:27.632Z,62.91
2022-12-25T04:48:25.062Z,62.61
2022-12-25T04:51:22.851Z,61.31
2022-12-25T04:54:20.296Z,57.63
2022-12-25T04:57:18.499Z,56.08
2022-12-25T05:00:16.339Z,56.73
2022-12-25T05:03:13.897Z,58.03
2022-12-25T05:06:11.680Z,59.16
2022-12-25T05:09:09.177Z,60.26
2022-12-25T05:12:06.844Z,62.79
2022-12-25T05:15:04.325Z,70.12
2022-12-25T05:18:02.032Z,68.31
2022-12-25T05:20:59.449Z,66.57
2022-12-25T05:23:57.164Z,65.16
2022-12-25T05:26:54.588Z,63.81
2022-12-25T05:29:52.296Z,62.48
2022-12-25T05:32:49.727Z,61.70
2022-12-25T05:35:47.535Z,61.30
2022-12-25T05:38:45.266Z,60.98
2022-12-25T05:41:42.704Z,58.28
2022-12-25T05:44:40.404Z,56.02
2022-12-25T05:47:37.825Z,56.60
2022-12-25T05:50:35.558Z,57.97
2022-12-25T05:53:33.115Z,59.16
2022-12-25T05:56:30.865Z,60.54
2022-12-25T05:59:28.598Z,64.50
2022-12-25T06:02:26.190Z,65.21
2022-12-25T06:05:24.125Z,64.99
2022-12-25T06:08:21.574Z,65.50
2022-12-25T06:11:19.286Z,66.16
2022-12-25T06:14:16.769Z,66.13
2022-12-25T06:17:14.503Z,66.19
2022-12-25T06:20:11.938Z,66.33
2022-12-25T06:23:09.683Z,66.33
2022-12-25T06:26:07.196Z,67.94
2022-12-25T06:29:04.966Z,68.09
2022-12-25T06:32:02.701Z,68.22
2022-12-25T06:35:00.310Z,68.67
2022-12-25T06:37:58.177Z,69.01
2022-12-25T06:40:55.626Z,67.39
2022-12-25T06:43:53.299Z,65.02
2022-12-25T06:46:51.071Z,64.34
2022-12-25T06:49:48.497Z,66.14
2022-12-25T06:52:46.273Z,63.12
2022-12-25T06:55:43.708Z,61.80
2022-12-25T06:58:41.393Z,62.08
2022-12-25T07:01:38.919Z,64.34
2022-12-25T07:04:38.473Z,61.89
2022-12-25T07:07:35.914Z,57.28
2022-12-25T07:10:33.615Z,55.62
2022-12-25T07:13:31.083Z,56.32
2022-12-25T07:16:28.827Z,57.71
2022-12-25T07:19:26.570Z,59.10
2022-12-25T07:22:23.964Z,60.27
2022-12-25T07:25:21.559Z,63.25
2022-12-25T07:28:18.984Z,68.13
2022-12-25T07:31:16.766Z,72.97
2022-12-25T07:34:14.294Z,69.48
2022-12-25T07:37:11.912Z,65.74
2022-12-25T07:40:09.331Z,64.26
2022-12-25T07:43:07.096Z,62.04
2022-12-25T07:46:05.140Z,57.66
2022-12-25T07:49:02.875Z,54.57
2022-12-25T07:52:00.310Z,55.40
2022-12-25T07:54:58.073Z,56.67
2022-12-25T07:57:55.491Z,57.88
2022-12-25T08:00:53.365Z,59.36
2022-12-25T08:03:51.692Z,64.74
2022-12-25T08:06:49.329Z,64.59
2022-12-25T08:09:46.957Z,64.09
2022-12-25T08:12:44.404Z,63.92
2022-12-25T08:15:42.235Z,65.00
2022-12-25T08:18:39.668Z,65.68
2022-12-25T08:21:37.450Z,67.29
2022-12-25T08:24:34.875Z,67.37
2022-12-25T08:27:32.677Z,65.19
2022-12-25T08:30:30.422Z,63.66
2022-12-25T08:33:28.318Z,62.25
2022-12-25T08:36:26.076Z,57.62
2022-12-25T08:39:23.527Z,54.57
2022-12-25T08:42:21.306Z,54.97
2022-12-25T08:45:18.735Z,56.13
2022-12-25T08:48:16.468Z,57.72
2022-12-25T08:51:15.634Z,58.58
2022-12-25T08:54:13.524Z,59.96
2022-12-25T08:57:10.951Z,64.87
2022-12-25T09:00:09.242Z,71.23
2022-12-25T09:03:06.763Z,66.87
2022-12-25T09:06:04.557Z,62.16
2022-12-25T09:09:02.252Z,57.66
2022-12-25T09:11:59.673Z,53.87
2022-12-25T09:14:57.467Z,54.01
2022-12-25T09:17:54.894Z,54.82
2022-12-25T09:20:52.682Z,56.12
2022-12-25T09:23:50.448Z,57.02
2022-12-25T09:26:47.867Z,57.95
2022-12-25T09:29:45.582Z,59.16
2022-12-25T09:32:43.032Z,59.69
2022-12-25T09:35:40.618Z,60.19
2022-12-25T09:38:38.067Z,63.91
2022-12-25T09:41:35.685Z,69.90
2022-12-25T09:44:33.139Z,66.63
2022-12-25T09:47:30.848Z,61.99
2022-12-25T09:50:28.250Z,56.50
2022-12-25T09:53:25.846Z,53.82
2022-12-25T09:56:25.861Z,53.97
2022-12-25T09:59:23.277Z,54.34
2022-12-25T10:02:21.330Z,55.33
2022-12-25T10:05:18.981Z,55.80
2022-12-25T10:08:16.601Z,56.55
2022-12-25T10:11:14.046Z,57.37
2022-12-25T10:14:11.776Z,58.08
2022-12-25T10:17:09.540Z,58.82
2022-12-25T10:20:08.348Z,59.16
2022-12-25T10:23:05.957Z,59.44
2022-12-25T10:26:04.328Z,60.20
2022-12-25T10:29:01.994Z,60.33
2022-12-25T10:31:59.446Z,60.42
2022-12-25T10:34:57.181Z,60.89
2022-12-25T10:37:55.444Z,60.54
2022-12-25T10:40:53.130Z,60.30
2022-12-25T10:43:50.765Z,61.04
2022-12-25T10:46:48.228Z,61.06
2022-12-25T10:49:45.910Z,60.98
2022-12-25T10:52:43.335Z,61.25
2022-12-25T10:55:40.948Z,64.67
2022-12-25T10:58:38.387Z,64.90
2022-12-25T11:01:36.185Z,62.74
2022-12-25T11:04:33.777Z,61.68
2022-12-25T11:07:31.216Z,61.18
2022-12-25T11:10:28.948Z,60.44
2022-12-25T11:13:27.075Z,60.42
2022-12-25T11:16:24.866Z,60.64
2022-12-25T11:19:22.427Z,62.67
2022-12-25T11:22:20.103Z,59.07
2022-12-25T11:25:17.611Z,56.08
2022-12-25T11:28:15.068Z,55.74
2022-12-25T11:31:13.106Z,55.97
2022-12-25T11:34:11.473Z,57.58
2022-12-25T11:37:09.464Z,58.53
2022-12-25T11:40:07.516Z,58.40
2022-12-25T11:43:08.191Z,59.82
2022-12-25T11:46:05.910Z,60.16
2022-12-25T11:49:03.719Z,60.57
2022-12-25T11:52:01.193Z,61.16
2022-12-25T11:54:58.925Z,63.44
2022-12-25T11:57:56.700Z,64.10
2022-12-25T12:00:54.175Z,68.81
2022-12-25T12:03:51.980Z,65.84
2022-12-25T12:06:49.454Z,62.54
2022-12-25T12:09:47.144Z,57.64
2022-12-25T12:12:48.840Z,54.90
2022-12-25T12:15:46.977Z,56.13
2022-12-25T12:18:50.337Z,56.24
2022-12-25T12:21:48.468Z,56.90
2022-12-25T12:24:46.117Z,58.05
2022-12-25T12:27:43.565Z,58.69
2022-12-25T12:30:41.116Z,59.42
2022-12-25T12:33:38.553Z,59.92
2022-12-25T12:36:37.003Z,60.30
2022-12-25T12:39:34.557Z,60.84
2022-12-25T12:42:32.333Z,63.79
2022-12-25T12:45:29.802Z,65.54
2022-12-25T12:48:27.656Z,62.89
2022-12-25T12:51:25.420Z,62.63
2022-12-25T12:54:22.869Z,62.42
2022-12-25T12:57:20.636Z,62.07
2022-12-25T13:00:18.091Z,60.59
2022-12-25T13:03:15.814Z,58.52
2022-12-25T13:06:13.288Z,57.17
2022-12-25T13:09:11.067Z,57.57
2022-12-25T13:12:08.519Z,58.93
2022-12-25T13:15:06.452Z,59.43
2022-12-25T13:18:03.868Z,59.74
2022-12-25T13:21:01.668Z,61.75
2022-12-25T13:23:59.451Z,63.99
2022-12-25T13:26:56.931Z,63.90
2022-12-25T13:29:54.657Z,63.28
2022-12-25T13:32:52.172Z,62.89
2022-12-25T13:35:49.795Z,62.91
2022-12-25T13:38:47.647Z,62.79
2022-12-25T13:42:02.699Z,62.52
2022-12-25T13:45:00.384Z,62.19
2022-12-25T13:47:57.947Z,62.91
2022-12-25T13:50:56.185Z,62.20
2022-12-25T13:53:53.625Z,62.15
2022-12-25T13:56:51.352Z,61.94
2022-12-25T13:59:49.110Z,61.90
2022-12-25T14:02:46.723Z,61.78
2022-12-25T14:05:44.427Z,61.63
2022-12-25T14:08:41.846Z,61.69
2022-12-25T14:11:39.565Z,61.45
2022-12-25T14:14:37.025Z,61.99
2022-12-25T14:17:34.628Z,62.66
2022-12-25T14:20:32.052Z,62.10
2022-12-25T14:23:29.821Z,61.01
2022-12-25T14:26:27.276Z,61.18
2022-12-25T14:29:28.303Z,62.14
2022-12-25T14:32:26.280Z,62.64
2022-12-25T14:35:23.992Z,62.45
2022-12-25T14:38:21.801Z,61.57
2022-12-25T14:41:25.770Z,61.82
2022-12-25T14:44:23.901Z,62.93
2022-12-25T14:47:21.604Z,62.67
2022-12-25T14:50:19.345Z,62.83
2022-12-25T14:53:16.776Z,63.19
2022-12-25T14:56:15.182Z,65.93
2022-12-25T14:59:12.614Z,66.65
2022-12-25T15:02:15.086Z,64.60
2022-12-25T15:05:16.630Z,64.15
2022-12-25T15:08:14.052Z,64.53
2022-12-25T15:11:11.803Z,62.61
2022-12-25T15:14:09.218Z,60.63
2022-12-25T15:17:06.977Z,59.91
2022-12-25T15:20:06.484Z,63.27
2022-12-25T15:23:19.328Z,64.07
2022-12-25T15:26:17.840Z,58.41
2022-12-25T15:29:15.271Z,54.72
2022-12-25T15:32:12.848Z,55.02
2022-12-25T15:35:10.262Z,56.45
2022-12-25T15:38:07.990Z,57.73
2022-12-25T15:41:05.407Z,58.93
2022-12-25T15:44:03.124Z,60.27
2022-12-25T15:47:00.526Z,64.98
2022-12-25T15:49:58.223Z,67.75
2022-12-25T15:52:55.623Z,65.67
2022-12-25T15:55:53.242Z,64.01
2022-12-25T15:58:50.875Z,65.31
2022-12-25T16:01:48.458Z,63.34
2022-12-25T16:04:46.235Z,61.97
2022-12-25T16:07:43.687Z,63.77
2022-12-25T16:10:41.356Z,63.02
2022-12-25T16:13:38.769Z,61.58
2022-12-25T16:16:36.589Z,61.95
2022-12-25T16:19:34.047Z,62.80
2022-12-25T16:22:32.329Z,61.37
2022-12-25T16:25:30.121Z,60.90
2022-12-25T16:28:27.538Z,61.34
2022-12-25T16:31:25.344Z,61.06
2022-12-25T16:34:22.911Z,61.55
2022-12-25T16:37:20.440Z,61.99
2022-12-25T16:40:18.077Z,62.21
2022-12-25T16:43:21.924Z,62.09
2022-12-25T16:46:21.525Z,61.85
2022-12-25T16:49:19.260Z,61.65
2022-12-25T16:52:16.984Z,61.18
2022-12-25T16:55:14.408Z,60.78
2022-12-25T16:58:12.215Z,59.76
2022-12-25T17:01:09.678Z,57.84
2022-12-25T17:04:07.404Z,58.11
2022-12-25T17:07:04.917Z,59.30
2022-12-25T17:10:03.979Z,63.47
2022-12-25T17:13:01.388Z,67.83
2022-12-25T17:15:59.250Z,66.94
2022-12-25T17:18:57.022Z,65.43
2022-12-25T17:21:54.853Z,64.06
2022-12-25T17:24:52.523Z,64.46
2022-12-25T17:27:49.956Z,67.62
2022-12-25T17:30:47.743Z,65.50
2022-12-25T17:33:45.177Z,63.29
2022-12-25T17:36:42.990Z,58.36
2022-12-25T17:39:40.754Z,54.94
2022-12-25T17:42:38.225Z,55.45
2022-12-25T17:45:35.997Z,56.51
2022-12-25T17:48:33.441Z,58.11
2022-12-25T17:51:31.233Z,59.46
2022-12-25T17:54:28.655Z,66.72
2022-12-25T17:57:26.435Z,72.07
2022-12-25T18:00:23.919Z,68.75
2022-12-25T18:03:21.715Z,65.47
2022-12-25T18:06:19.314Z,63.81
2022-12-25T18:09:16.995Z,62.77
2022-12-25T18:12:15.416Z,57.08
2022-12-25T18:15:13.025Z,53.51
2022-12-25T18:18:10.656Z,54.27
2022-12-25T18:21:08.107Z,55.52
2022-12-25T18:24:05.948Z,57.21
2022-12-25T18:27:03.392Z,58.59
2022-12-25T18:30:00.841Z,59.93
2022-12-25T18:32:58.281Z,66.81
2022-12-25T18:35:55.971Z,70.78
2022-12-25T18:38:53.662Z,67.27
2022-12-25T18:42:08.689Z,66.48
2022-12-25T18:45:06.476Z,65.88
2022-12-25T18:48:06.559Z,62.41
2022-12-25T18:51:04.398Z,63.00
2022-12-25T18:54:02.663Z,60.76
2022-12-25T18:57:05.404Z,60.58
2022-12-25T19:00:05.082Z,59.48
2022-12-25T19:03:03.802Z,56.29
2022-12-25T19:06:02.023Z,55.85
2022-12-25T19:09:00.263Z,57.10
2022-12-25T19:11:58.263Z,58.51
2022-12-25T19:14:55.690Z,59.84
2022-12-25T19:17:53.548Z,64.51
2022-12-25T19:20:51.073Z,67.76
2022-12-25T19:23:48.806Z,66.34
2022-12-25T19:26:46.247Z,66.16
2022-12-25T19:29:44.177Z,66.64
2022-12-25T19:32:41.712Z,65.64
2022-12-25T19:35:39.656Z,65.79
2022-12-25T19:38:37.262Z,65.54
2022-12-25T19:41:35.010Z,64.58
2022-12-25T19:44:32.438Z,64.68
2022-12-25T19:47:30.036Z,64.40
2022-12-25T19:50:28.849Z,65.15
2022-12-25T19:53:27.313Z,63.35
2022-12-25T19:56:25.092Z,62.29
2022-12-25T19:59:23.378Z,61.32
2022-12-25T20:02:21.486Z,62.61
2022-12-25T20:05:19.140Z,65.82
2022-12-25T20:08:17.891Z,63.87
2022-12-25T20:11:16.085Z,60.97
2022-12-25T20:14:13.770Z,56.59
2022-12-25T20:17:15.791Z,54.90
2022-12-25T20:20:14.717Z,55.97
2022-12-25T20:23:12.490Z,57.44
2022-12-25T20:26:11.351Z,58.93
2022-12-25T20:29:09.252Z,63.90
2022-12-25T20:32:07.336Z,64.70
2022-12-25T20:35:05.548Z,64.44
2022-12-25T20:38:03.223Z,64.37
2022-12-25T20:41:26.309Z,64.89
2022-12-25T20:44:19.761Z,64.66
2022-12-25T20:47:17.908Z,65.55
2022-12-25T20:50:15.597Z,66.31
2022-12-25T20:53:13.366Z,66.00
2022-12-25T20:56:11.123Z,66.72
2022-12-25T20:59:09.075Z,66.59
2022-12-25T21:02:07.032Z,66.62
2022-12-25T21:05:05.126Z,68.96
2022-12-25T21:08:02.872Z,74.54
2022-12-25T21:11:01.269Z,73.30
2022-12-25T21:13:59.064Z,69.92
2022-12-25T21:16:58.096Z,68.98
2022-12-25T21:19:55.593Z,66.01
2022-12-25T21:22:53.309Z,64.09
2022-12-25T21:25:51.068Z,63.01
2022-12-25T21:28:48.824Z,63.36
2022-12-25T21:32:00.128Z,57.56
2022-12-25T21:34:57.751Z,54.26
2022-12-25T21:37:55.188Z,55.31
2022-12-25T21:40:52.871Z,56.76
2022-12-25T21:43:50.860Z,58.32
2022-12-25T21:46:48.443Z,59.65
2022-12-25T21:50:04.442Z,66.99
2022-12-25T21:53:01.869Z,68.23
2022-12-25T21:55:59.663Z,65.62
2022-12-25T21:58:57.101Z,64.67
2022-12-25T22:01:54.962Z,63.04
2022-12-25T22:04:52.745Z,63.49
2022-12-25T22:07:50.209Z,67.38
2022-12-25T22:10:47.894Z,67.19
2022-12-25T22:13:59.186Z,66.02
2022-12-25T22:17:14.546Z,64.74
2022-12-25T22:20:12.322Z,62.88
2022-12-25T22:23:09.770Z,56.60
2022-12-25T22:26:07.524Z,53.30
2022-12-25T22:29:04.980Z,53.99
2022-12-25T22:32:02.765Z,55.44
2022-12-25T22:35:00.578Z,56.74
2022-12-25T22:37:58.287Z,58.39
2022-12-25T22:40:55.918Z,59.86
2022-12-25T22:44:16.616Z,63.67
2022-12-25T22:47:11.000Z,70.99
2022-12-25T22:50:08.438Z,68.19
2022-12-25T22:53:06.196Z,65.50
2022-12-25T22:56:03.624Z,64.50
2022-12-25T22:59:01.278Z,63.54
2022-12-25T23:01:58.816Z,64.40
2022-12-25T23:04:56.642Z,65.83
2022-12-25T23:07:54.299Z,63.65
2022-12-25T23:10:51.735Z,61.62
2022-12-25T23:14:07.445Z,61.27
2022-12-25T23:17:04.877Z,61.24
2022-12-25T23:20:20.627Z,62.45
2022-12-25T23:23:35.972Z,64.75
2022-12-25T23:26:33.393Z,60.52
2022-12-25T23:29:40.408Z,61.52
2022-12-25T23:32:37.842Z,56.49
2022-12-25T23:35:35.570Z,55.51
2022-12-25T23:38:33.003Z,56.31
2022-12-25T23:41:30.709Z,57.78
2022-12-25T23:44:28.134Z,59.17
2022-12-25T23:47:25.886Z,64.32
2022-12-25T23:50:23.317Z,68.06
2022-12-25T23:53:20.978Z,66.82
2022-12-25T23:56:18.591Z,68.76
2022-12-25T23:59:16.034Z,68.06
